sensor_id;sensor_type;location;lat;lon;timestamp;P1;durP1;ratioP1;P2;durP2;ratioP2
2476;SDS011;1249;51.270;6.756;2022-10-16T00:00:35;13.67;;;12.47;;
2476;SDS011;1249;51.270;6.756;2022-10-16T00:03:03;15.00;;;13.63;;
2476;SDS011;1249;51.270;6.756;2022-10-16T00:05:31;10.90;;;9.90;;
2476;SDS011;1249;51.270;6.756;2022-10-16T00:07:58;21.33;;;19.50;;
2476;SDS011;1249;51.270;6.756;2022-10-16T00:10:25;15.93;;;14.67;;
2476;SDS011;1249;51.270;6.756;2022-10-16T00:12:53;10.57;;;10.17;;
2476;SDS011;1249;51.270;6.756;2022-10-16T00:15:19;36.53;;;34.23;;
2476;SDS011;1249;51.270;6.756;2022-10-16T00:17:46;22.60;;;20.67;;
2476;SDS011;1249;51.270;6.756;2022-10-16T00:20:13;26.50;;;24.73;;
2476;SDS011;1249;51.270;6.756;2022-10-16T00:22:40;23.23;;;21.97;;
2476;SDS011;1249;51.270;6.756;2022-10-16T00:25:06;9.07;;;6.37;;
2476;SDS011;1249;51.270;6.756;2022-10-16T00:27:34;36.27;;;34.10;;
2476;SDS011;1249;51.270;6.756;2022-10-16T00:30:02;21.27;;;20.27;;
2476;SDS011;1249;51.270;6.756;2022-10-16T00:32:30;14.67;;;13.43;;
2476;SDS011;1249;51.270;6.756;2022-10-16T00:34:56;40.50;;;38.37;;
2476;SDS011;1249;51.270;6.756;2022-10-16T00:37:23;83.67;;;79.30;;
2476;SDS011;1249;51.270;6.756;2022-10-16T00:39:50;18.20;;;12.97;;
2476;SDS011;1249;51.270;6.756;2022-10-16T00:42:17;20.23;;;18.53;;
2476;SDS011;1249;51.270;6.756;2022-10-16T00:44:46;20.20;;;18.87;;
2476;SDS011;1249;51.270;6.756;2022-10-16T00:47:19;13.00;;;8.30;;
2476;SDS011;1249;51.270;6.756;2022-10-16T00:49:48;36.40;;;33.70;;
2476;SDS011;1249;51.270;6.756;2022-10-16T00:52:17;25.67;;;24.37;;
2476;SDS011;1249;51.270;6.756;2022-10-16T00:54:45;26.20;;;24.33;;
2476;SDS011;1249;51.270;6.756;2022-10-16T00:57:12;27.23;;;24.93;;
2476;SDS011;1249;51.270;6.756;2022-10-16T00:59:40;26.37;;;24.60;;
2476;SDS011;1249;51.270;6.756;2022-10-16T01:02:08;16.93;;;16.07;;
2476;SDS011;1249;51.270;6.756;2022-10-16T01:04:42;18.20;;;16.30;;
2476;SDS011;1249;51.270;6.756;2022-10-16T01:07:12;89.43;;;84.37;;
2476;SDS011;1249;51.270;6.756;2022-10-16T01:09:46;116.07;;;109.43;;
2476;SDS011;1249;51.270;6.756;2022-10-16T01:12:22;127.40;;;121.80;;
2476;SDS011;1249;51.270;6.756;2022-10-16T01:14:59;36.27;;;34.27;;
2476;SDS011;1249;51.270;6.756;2022-10-16T01:17:34;37.33;;;35.07;;
2476;SDS011;1249;51.270;6.756;2022-10-16T01:20:10;29.83;;;27.97;;
2476;SDS011;1249;51.270;6.756;2022-10-16T01:22:43;31.67;;;29.17;;
2476;SDS011;1249;51.270;6.756;2022-10-16T01:25:18;115.97;;;109.37;;
2476;SDS011;1249;51.270;6.756;2022-10-16T01:27:53;39.03;;;36.80;;
2476;SDS011;1249;51.270;6.756;2022-10-16T01:30:21;50.47;;;47.73;;
2476;SDS011;1249;51.270;6.756;2022-10-16T01:32:52;57.63;;;54.87;;
2476;SDS011;1249;51.270;6.756;2022-10-16T01:35:24;94.17;;;89.13;;
2476;SDS011;1249;51.270;6.756;2022-10-16T01:37:53;16.23;;;14.67;;
2476;SDS011;1249;51.270;6.756;2022-10-16T01:40:26;13.03;;;12.03;;
2476;SDS011;1249;51.270;6.756;2022-10-16T01:42:57;115.33;;;108.73;;
2476;SDS011;1249;51.270;6.756;2022-10-16T01:45:27;115.83;;;109.43;;
2476;SDS011;1249;51.270;6.756;2022-10-16T01:47:56;49.07;;;46.20;;
2476;SDS011;1249;51.270;6.756;2022-10-16T01:50:24;117.07;;;110.50;;
2476;SDS011;1249;51.270;6.756;2022-10-16T01:52:52;29.57;;;27.87;;
2476;SDS011;1249;51.270;6.756;2022-10-16T01:55:24;114.43;;;107.83;;
2476;SDS011;1249;51.270;6.756;2022-10-16T01:57:56;33.17;;;31.27;;
2476;SDS011;1249;51.270;6.756;2022-10-16T02:00:25;33.87;;;31.67;;
2476;SDS011;1249;51.270;6.756;2022-10-16T02:02:53;42.47;;;39.57;;
2476;SDS011;1249;51.270;6.756;2022-10-16T02:05:24;20.47;;;19.43;;
2476;SDS011;1249;51.270;6.756;2022-10-16T02:07:54;19.57;;;17.70;;
2476;SDS011;1249;51.270;6.756;2022-10-16T02:10:21;103.53;;;97.97;;
2476;SDS011;1249;51.270;6.756;2022-10-16T02:12:50;11.63;;;10.70;;
2476;SDS011;1249;51.270;6.756;2022-10-16T02:15:23;28.60;;;26.73;;
2476;SDS011;1249;51.270;6.756;2022-10-16T02:17:50;35.23;;;33.57;;
2476;SDS011;1249;51.270;6.756;2022-10-16T02:20:17;28.07;;;26.23;;
2476;SDS011;1249;51.270;6.756;2022-10-16T02:22:48;33.23;;;30.90;;
2476;SDS011;1249;51.270;6.756;2022-10-16T02:25:19;34.87;;;32.87;;
2476;SDS011;1249;51.270;6.756;2022-10-16T02:27:52;24.53;;;23.03;;
2476;SDS011;1249;51.270;6.756;2022-10-16T02:30:24;18.87;;;17.00;;
2476;SDS011;1249;51.270;6.756;2022-10-16T02:32:54;54.73;;;51.57;;
2476;SDS011;1249;51.270;6.756;2022-10-16T02:35:24;13.63;;;12.60;;
2476;SDS011;1249;51.270;6.756;2022-10-16T02:37:52;11.77;;;10.90;;
2476;SDS011;1249;51.270;6.756;2022-10-16T02:40:19;14.73;;;13.50;;
2476;SDS011;1249;51.270;6.756;2022-10-16T02:42:49;18.00;;;17.20;;
2476;SDS011;1249;51.270;6.756;2022-10-16T02:45:17;11.00;;;9.97;;
2476;SDS011;1249;51.270;6.756;2022-10-16T02:47:45;30.13;;;27.53;;
2476;SDS011;1249;51.270;6.756;2022-10-16T02:50:12;19.93;;;18.53;;
2476;SDS011;1249;51.270;6.756;2022-10-16T02:52:39;19.70;;;18.03;;
2476;SDS011;1249;51.270;6.756;2022-10-16T02:55:06;22.23;;;20.93;;
2476;SDS011;1249;51.270;6.756;2022-10-16T02:57:33;18.83;;;17.93;;
2476;SDS011;1249;51.270;6.756;2022-10-16T03:00:02;15.60;;;14.30;;
2476;SDS011;1249;51.270;6.756;2022-10-16T03:02:29;10.50;;;9.30;;
2476;SDS011;1249;51.270;6.756;2022-10-16T03:04:57;62.90;;;58.93;;
2476;SDS011;1249;51.270;6.756;2022-10-16T03:07:24;33.50;;;30.90;;
2476;SDS011;1249;51.270;6.756;2022-10-16T03:09:50;16.80;;;14.77;;
2476;SDS011;1249;51.270;6.756;2022-10-16T03:12:17;20.97;;;19.97;;
2476;SDS011;1249;51.270;6.756;2022-10-16T03:14:44;8.20;;;7.53;;
2476;SDS011;1249;51.270;6.756;2022-10-16T03:17:11;23.37;;;21.73;;
2476;SDS011;1249;51.270;6.756;2022-10-16T03:19:38;30.03;;;27.97;;
2476;SDS011;1249;51.270;6.756;2022-10-16T03:22:06;14.37;;;13.23;;
2476;SDS011;1249;51.270;6.756;2022-10-16T03:24:33;21.17;;;20.17;;
2476;SDS011;1249;51.270;6.756;2022-10-16T03:27:00;19.73;;;18.43;;
2476;SDS011;1249;51.270;6.756;2022-10-16T03:29:27;15.03;;;14.33;;
2476;SDS011;1249;51.270;6.756;2022-10-16T03:31:54;19.50;;;18.17;;
2476;SDS011;1249;51.270;6.756;2022-10-16T03:34:24;10.83;;;10.07;;
2476;SDS011;1249;51.270;6.756;2022-10-16T03:36:51;36.30;;;34.33;;
2476;SDS011;1249;51.270;6.756;2022-10-16T03:39:19;36.40;;;34.07;;
2476;SDS011;1249;51.270;6.756;2022-10-16T03:41:46;11.50;;;9.50;;
2476;SDS011;1249;51.270;6.756;2022-10-16T03:44:13;16.40;;;15.50;;
2476;SDS011;1249;51.270;6.756;2022-10-16T03:46:40;19.37;;;18.03;;
2476;SDS011;1249;51.270;6.756;2022-10-16T03:49:07;13.00;;;12.00;;
2476;SDS011;1249;51.270;6.756;2022-10-16T03:51:34;17.43;;;16.27;;
2476;SDS011;1249;51.270;6.756;2022-10-16T03:54:01;25.50;;;23.43;;
2476;SDS011;1249;51.270;6.756;2022-10-16T03:56:29;12.57;;;11.30;;
2476;SDS011;1249;51.270;6.756;2022-10-16T03:58:55;17.17;;;16.10;;
2476;SDS011;1249;51.270;6.756;2022-10-16T04:01:22;99.67;;;94.50;;
2476;SDS011;1249;51.270;6.756;2022-10-16T04:03:49;110.63;;;105.03;;
2476;SDS011;1249;51.270;6.756;2022-10-16T04:06:16;13.03;;;12.27;;
2476;SDS011;1249;51.270;6.756;2022-10-16T04:08:42;20.10;;;18.53;;
2476;SDS011;1249;51.270;6.756;2022-10-16T04:11:09;107.47;;;101.40;;
2476;SDS011;1249;51.270;6.756;2022-10-16T04:13:37;120.17;;;113.37;;
2476;SDS011;1249;51.270;6.756;2022-10-16T04:16:04;94.80;;;89.37;;
2476;SDS011;1249;51.270;6.756;2022-10-16T04:18:31;115.13;;;109.93;;
2476;SDS011;1249;51.270;6.756;2022-10-16T04:21:01;54.27;;;51.13;;
2476;SDS011;1249;51.270;6.756;2022-10-16T04:23:29;129.37;;;122.57;;
2476;SDS011;1249;51.270;6.756;2022-10-16T04:25:55;65.67;;;61.57;;
2476;SDS011;1249;51.270;6.756;2022-10-16T04:28:22;85.77;;;81.23;;
2476;SDS011;1249;51.270;6.756;2022-10-16T04:30:50;83.33;;;78.50;;
2476;SDS011;1249;51.270;6.756;2022-10-16T04:33:17;82.67;;;78.23;;
2476;SDS011;1249;51.270;6.756;2022-10-16T04:35:44;14.67;;;13.30;;
2476;SDS011;1249;51.270;6.756;2022-10-16T04:38:10;82.13;;;77.50;;
2476;SDS011;1249;51.270;6.756;2022-10-16T04:40:37;56.87;;;53.80;;
2476;SDS011;1249;51.270;6.756;2022-10-16T04:43:04;93.53;;;88.57;;
2476;SDS011;1249;51.270;6.756;2022-10-16T04:45:32;34.73;;;32.50;;
2476;SDS011;1249;51.270;6.756;2022-10-16T04:48:00;71.47;;;67.13;;
2476;SDS011;1249;51.270;6.756;2022-10-16T04:50:27;95.43;;;90.03;;
2476;SDS011;1249;51.270;6.756;2022-10-16T04:52:53;78.77;;;74.40;;
2476;SDS011;1249;51.270;6.756;2022-10-16T04:55:20;131.00;;;124.07;;
2476;SDS011;1249;51.270;6.756;2022-10-16T04:57:47;26.93;;;25.33;;
2476;SDS011;1249;51.270;6.756;2022-10-16T05:00:14;8.53;;;7.87;;
2476;SDS011;1249;51.270;6.756;2022-10-16T05:02:41;117.77;;;110.70;;
2476;SDS011;1249;51.270;6.756;2022-10-16T05:05:09;79.17;;;74.87;;
2476;SDS011;1249;51.270;6.756;2022-10-16T05:07:36;106.77;;;101.13;;
2476;SDS011;1249;51.270;6.756;2022-10-16T05:10:03;137.33;;;131.17;;
2476;SDS011;1249;51.270;6.756;2022-10-16T05:12:31;98.53;;;93.20;;
2476;SDS011;1249;51.270;6.756;2022-10-16T05:14:58;117.63;;;111.23;;
2476;SDS011;1249;51.270;6.756;2022-10-16T05:17:25;19.43;;;18.23;;
2476;SDS011;1249;51.270;6.756;2022-10-16T05:19:52;92.53;;;87.77;;
2476;SDS011;1249;51.270;6.756;2022-10-16T05:22:20;59.90;;;56.50;;
2476;SDS011;1249;51.270;6.756;2022-10-16T05:24:47;16.83;;;15.60;;
2476;SDS011;1249;51.270;6.756;2022-10-16T05:27:13;105.83;;;100.20;;
2476;SDS011;1249;51.270;6.756;2022-10-16T05:29:44;122.00;;;114.97;;
2476;SDS011;1249;51.270;6.756;2022-10-16T05:32:11;109.47;;;104.03;;
2476;SDS011;1249;51.270;6.756;2022-10-16T05:34:38;100.23;;;94.77;;
2476;SDS011;1249;51.270;6.756;2022-10-16T05:37:04;84.30;;;79.40;;
2476;SDS011;1249;51.270;6.756;2022-10-16T05:39:32;118.43;;;112.43;;
2476;SDS011;1249;51.270;6.756;2022-10-16T05:41:59;96.50;;;91.57;;
2476;SDS011;1249;51.270;6.756;2022-10-16T05:44:26;126.77;;;119.77;;
2476;SDS011;1249;51.270;6.756;2022-10-16T05:46:53;117.50;;;111.40;;
2476;SDS011;1249;51.270;6.756;2022-10-16T05:49:20;111.67;;;105.20;;
2476;SDS011;1249;51.270;6.756;2022-10-16T05:51:46;108.93;;;103.53;;
2476;SDS011;1249;51.270;6.756;2022-10-16T05:54:13;99.67;;;93.77;;
2476;SDS011;1249;51.270;6.756;2022-10-16T05:56:42;104.37;;;98.27;;
2476;SDS011;1249;51.270;6.756;2022-10-16T05:59:09;128.73;;;122.47;;
2476;SDS011;1249;51.270;6.756;2022-10-16T06:01:35;116.00;;;110.07;;
2476;SDS011;1249;51.270;6.756;2022-10-16T06:04:02;114.80;;;108.73;;
2476;SDS011;1249;51.270;6.756;2022-10-16T06:06:29;122.57;;;116.47;;
2476;SDS011;1249;51.270;6.756;2022-10-16T06:08:56;123.93;;;116.77;;
2476;SDS011;1249;51.270;6.756;2022-10-16T06:11:25;115.47;;;108.23;;
2476;SDS011;1249;51.270;6.756;2022-10-16T06:13:56;49.53;;;46.27;;
2476;SDS011;1249;51.270;6.756;2022-10-16T06:16:25;52.40;;;48.87;;
2476;SDS011;1249;51.270;6.756;2022-10-16T06:18:53;16.20;;;14.80;;
2476;SDS011;1249;51.270;6.756;2022-10-16T06:21:21;24.10;;;22.07;;
2476;SDS011;1249;51.270;6.756;2022-10-16T06:23:50;25.90;;;23.77;;
2476;SDS011;1249;51.270;6.756;2022-10-16T06:26:18;11.63;;;10.93;;
2476;SDS011;1249;51.270;6.756;2022-10-16T06:28:46;18.10;;;16.37;;
2476;SDS011;1249;51.270;6.756;2022-10-16T06:31:16;21.57;;;19.90;;
2476;SDS011;1249;51.270;6.756;2022-10-16T06:33:43;10.23;;;9.37;;
2476;SDS011;1249;51.270;6.756;2022-10-16T06:36:11;19.80;;;18.27;;
2476;SDS011;1249;51.270;6.756;2022-10-16T06:38:39;18.77;;;17.67;;
2476;SDS011;1249;51.270;6.756;2022-10-16T06:41:07;21.23;;;19.47;;
2476;SDS011;1249;51.270;6.756;2022-10-16T06:43:36;12.80;;;11.60;;
2476;SDS011;1249;51.270;6.756;2022-10-16T06:46:03;16.03;;;14.67;;
2476;SDS011;1249;51.270;6.756;2022-10-16T06:48:33;13.47;;;12.40;;
2476;SDS011;1249;51.270;6.756;2022-10-16T06:51:00;19.67;;;18.13;;
2476;SDS011;1249;51.270;6.756;2022-10-16T06:53:28;22.43;;;20.67;;
2476;SDS011;1249;51.270;6.756;2022-10-16T06:55:56;22.77;;;21.47;;
2476;SDS011;1249;51.270;6.756;2022-10-16T06:58:23;25.40;;;23.37;;
2476;SDS011;1249;51.270;6.756;2022-10-16T07:00:54;25.03;;;22.77;;
2476;SDS011;1249;51.270;6.756;2022-10-16T07:03:22;39.40;;;37.00;;
2476;SDS011;1249;51.270;6.756;2022-10-16T07:05:50;27.93;;;25.80;;
2476;SDS011;1249;51.270;6.756;2022-10-16T07:08:16;27.00;;;25.13;;
2476;SDS011;1249;51.270;6.756;2022-10-16T07:10:43;22.63;;;21.17;;
2476;SDS011;1249;51.270;6.756;2022-10-16T07:13:10;17.97;;;16.60;;
2476;SDS011;1249;51.270;6.756;2022-10-16T07:15:38;24.90;;;23.10;;
2476;SDS011;1249;51.270;6.756;2022-10-16T07:18:05;34.60;;;32.33;;
2476;SDS011;1249;51.270;6.756;2022-10-16T07:20:32;23.77;;;21.70;;
2476;SDS011;1249;51.270;6.756;2022-10-16T07:23:00;20.60;;;18.83;;
2476;SDS011;1249;51.270;6.756;2022-10-16T07:25:27;25.17;;;23.63;;
2476;SDS011;1249;51.270;6.756;2022-10-16T07:27:53;33.57;;;31.20;;
2476;SDS011;1249;51.270;6.756;2022-10-16T07:30:22;30.73;;;28.43;;
2476;SDS011;1249;51.270;6.756;2022-10-16T07:32:49;31.57;;;29.37;;
2476;SDS011;1249;51.270;6.756;2022-10-16T07:35:15;27.03;;;25.30;;
2476;SDS011;1249;51.270;6.756;2022-10-16T07:37:44;26.27;;;24.60;;
2476;SDS011;1249;51.270;6.756;2022-10-16T07:40:12;28.20;;;26.43;;
2476;SDS011;1249;51.270;6.756;2022-10-16T07:42:39;35.47;;;33.60;;
2476;SDS011;1249;51.270;6.756;2022-10-16T07:45:06;30.40;;;28.70;;
2476;SDS011;1249;51.270;6.756;2022-10-16T07:47:33;31.53;;;29.23;;
2476;SDS011;1249;51.270;6.756;2022-10-16T07:49:59;26.03;;;24.60;;
2476;SDS011;1249;51.270;6.756;2022-10-16T07:52:26;51.60;;;48.60;;
2476;SDS011;1249;51.270;6.756;2022-10-16T07:54:53;36.80;;;34.57;;
2476;SDS011;1249;51.270;6.756;2022-10-16T07:57:21;49.87;;;46.43;;
2476;SDS011;1249;51.270;6.756;2022-10-16T07:59:47;33.70;;;31.07;;
2476;SDS011;1249;51.270;6.756;2022-10-16T08:02:14;38.07;;;35.43;;
2476;SDS011;1249;51.270;6.756;2022-10-16T08:04:41;48.00;;;44.83;;
2476;SDS011;1249;51.270;6.756;2022-10-16T08:07:08;36.90;;;34.77;;
2476;SDS011;1249;51.270;6.756;2022-10-16T08:09:34;41.93;;;39.33;;
2476;SDS011;1249;51.270;6.756;2022-10-16T08:12:01;39.37;;;36.90;;
2476;SDS011;1249;51.270;6.756;2022-10-16T08:14:30;43.60;;;41.03;;
2476;SDS011;1249;51.270;6.756;2022-10-16T08:16:57;49.63;;;47.00;;
2476;SDS011;1249;51.270;6.756;2022-10-16T08:19:24;56.73;;;53.20;;
2476;SDS011;1249;51.270;6.756;2022-10-16T08:21:50;44.30;;;41.50;;
2476;SDS011;1249;51.270;6.756;2022-10-16T08:24:17;45.47;;;42.73;;
2476;SDS011;1249;51.270;6.756;2022-10-16T08:26:47;40.97;;;38.20;;
2476;SDS011;1249;51.270;6.756;2022-10-16T08:29:14;77.53;;;73.47;;
2476;SDS011;1249;51.270;6.756;2022-10-16T08:31:42;34.07;;;31.60;;
2476;SDS011;1249;51.270;6.756;2022-10-16T08:34:09;48.83;;;45.97;;
2476;SDS011;1249;51.270;6.756;2022-10-16T08:36:35;56.93;;;53.93;;
2476;SDS011;1249;51.270;6.756;2022-10-16T08:39:03;40.90;;;38.07;;
2476;SDS011;1249;51.270;6.756;2022-10-16T08:44:52;57.47;;;54.40;;
2476;SDS011;1249;51.270;6.756;2022-10-16T08:47:42;41.97;;;39.37;;
2476;SDS011;1249;51.270;6.756;2022-10-16T08:50:13;36.53;;;34.03;;
2476;SDS011;1249;51.270;6.756;2022-10-16T08:52:47;48.93;;;45.80;;
2476;SDS011;1249;51.270;6.756;2022-10-16T08:55:29;50.70;;;47.60;;
2476;SDS011;1249;51.270;6.756;2022-10-16T08:58:00;58.97;;;55.67;;
2476;SDS011;1249;51.270;6.756;2022-10-16T09:00:27;63.57;;;59.47;;
2476;SDS011;1249;51.270;6.756;2022-10-16T09:02:58;100.00;;;94.23;;
2476;SDS011;1249;51.270;6.756;2022-10-16T09:08:22;87.17;;;82.00;;
2476;SDS011;1249;51.270;6.756;2022-10-16T09:10:56;153.83;;;145.40;;
2476;SDS011;1249;51.270;6.756;2022-10-16T09:13:28;143.50;;;135.23;;
2476;SDS011;1249;51.270;6.756;2022-10-16T09:16:03;143.57;;;135.47;;
2476;SDS011;1249;51.270;6.756;2022-10-16T09:18:44;148.53;;;139.40;;
2476;SDS011;1249;51.270;6.756;2022-10-16T09:21:21;131.60;;;124.37;;
2476;SDS011;1249;51.270;6.756;2022-10-16T09:23:54;174.50;;;164.70;;
2476;SDS011;1249;51.270;6.756;2022-10-16T09:26:24;174.37;;;162.07;;
2476;SDS011;1249;51.270;6.756;2022-10-16T09:28:51;160.27;;;150.87;;
2476;SDS011;1249;51.270;6.756;2022-10-16T09:31:19;154.97;;;145.93;;
2476;SDS011;1249;51.270;6.756;2022-10-16T09:33:50;135.70;;;126.73;;
2476;SDS011;1249;51.270;6.756;2022-10-16T09:36:20;154.47;;;144.93;;
2476;SDS011;1249;51.270;6.756;2022-10-16T09:38:49;161.00;;;151.03;;
2476;SDS011;1249;51.270;6.756;2022-10-16T09:41:19;165.10;;;155.40;;
2476;SDS011;1249;51.270;6.756;2022-10-16T09:43:52;143.93;;;135.07;;
2476;SDS011;1249;51.270;6.756;2022-10-16T09:46:22;130.90;;;123.37;;
2476;SDS011;1249;51.270;6.756;2022-10-16T09:48:55;118.30;;;110.60;;
2476;SDS011;1249;51.270;6.756;2022-10-16T09:51:24;141.00;;;133.10;;
2476;SDS011;1249;51.270;6.756;2022-10-16T09:53:54;118.60;;;111.93;;
2476;SDS011;1249;51.270;6.756;2022-10-16T09:56:23;133.10;;;125.77;;
2476;SDS011;1249;51.270;6.756;2022-10-16T09:58:52;133.30;;;126.77;;
2476;SDS011;1249;51.270;6.756;2022-10-16T10:01:19;134.50;;;126.97;;
2476;SDS011;1249;51.270;6.756;2022-10-16T10:03:48;91.57;;;86.17;;
2476;SDS011;1249;51.270;6.756;2022-10-16T10:06:21;115.07;;;109.53;;
2476;SDS011;1249;51.270;6.756;2022-10-16T10:08:56;104.07;;;98.50;;
2476;SDS011;1249;51.270;6.756;2022-10-16T10:11:44;117.63;;;111.33;;
2476;SDS011;1249;51.270;6.756;2022-10-16T10:14:18;130.27;;;122.90;;
2476;SDS011;1249;51.270;6.756;2022-10-16T10:16:50;112.83;;;107.17;;
2476;SDS011;1249;51.270;6.756;2022-10-16T10:19:19;113.13;;;108.00;;
2476;SDS011;1249;51.270;6.756;2022-10-16T10:21:49;103.93;;;98.50;;
2476;SDS011;1249;51.270;6.756;2022-10-16T10:24:17;122.07;;;115.87;;
2476;SDS011;1249;51.270;6.756;2022-10-16T10:26:47;103.93;;;98.77;;
2476;SDS011;1249;51.270;6.756;2022-10-16T10:29:22;129.90;;;123.40;;
2476;SDS011;1249;51.270;6.756;2022-10-16T10:31:59;93.30;;;88.63;;
2476;SDS011;1249;51.270;6.756;2022-10-16T10:34:45;110.03;;;104.17;;
2476;SDS011;1249;51.270;6.756;2022-10-16T10:37:28;119.60;;;113.30;;
2476;SDS011;1249;51.270;6.756;2022-10-16T10:40:06;112.97;;;107.10;;
2476;SDS011;1249;51.270;6.756;2022-10-16T10:42:42;106.40;;;100.73;;
2476;SDS011;1249;51.270;6.756;2022-10-16T10:45:18;105.70;;;99.93;;
2476;SDS011;1249;51.270;6.756;2022-10-16T10:47:55;120.07;;;113.47;;
2476;SDS011;1249;51.270;6.756;2022-10-16T10:50:30;97.03;;;91.40;;
2476;SDS011;1249;51.270;6.756;2022-10-16T10:53:09;103.50;;;98.10;;
2476;SDS011;1249;51.270;6.756;2022-10-16T10:55:45;115.57;;;109.93;;
2476;SDS011;1249;51.270;6.756;2022-10-16T11:01:35;117.80;;;111.10;;
2476;SDS011;1249;51.270;6.756;2022-10-16T11:04:18;114.60;;;107.50;;
2476;SDS011;1249;51.270;6.756;2022-10-16T11:07:05;99.10;;;93.57;;
2476;SDS011;1249;51.270;6.756;2022-10-16T11:09:38;126.17;;;120.13;;
2476;SDS011;1249;51.270;6.756;2022-10-16T11:12:09;120.30;;;113.60;;
2476;SDS011;1249;51.270;6.756;2022-10-16T11:14:41;145.07;;;137.57;;
2476;SDS011;1249;51.270;6.756;2022-10-16T11:17:13;130.50;;;123.37;;
2476;SDS011;1249;51.270;6.756;2022-10-16T11:19:45;101.33;;;95.10;;
2476;SDS011;1249;51.270;6.756;2022-10-16T11:22:16;141.73;;;134.67;;
2476;SDS011;1249;51.270;6.756;2022-10-16T11:24:51;95.87;;;90.93;;
2476;SDS011;1249;51.270;6.756;2022-10-16T11:27:26;112.77;;;106.40;;
2476;SDS011;1249;51.270;6.756;2022-10-16T11:30:01;94.10;;;88.93;;
2476;SDS011;1249;51.270;6.756;2022-10-16T11:32:32;116.77;;;111.37;;
2476;SDS011;1249;51.270;6.756;2022-10-16T11:35:08;119.63;;;113.00;;
2476;SDS011;1249;51.270;6.756;2022-10-16T11:37:44;146.67;;;139.50;;
2476;SDS011;1249;51.270;6.756;2022-10-16T11:40:19;115.47;;;109.13;;
2476;SDS011;1249;51.270;6.756;2022-10-16T11:42:50;121.80;;;115.43;;
2476;SDS011;1249;51.270;6.756;2022-10-16T11:45:24;137.17;;;129.70;;
2476;SDS011;1249;51.270;6.756;2022-10-16T11:47:58;107.40;;;100.83;;
2476;SDS011;1249;51.270;6.756;2022-10-16T11:50:29;127.70;;;120.03;;
2476;SDS011;1249;51.270;6.756;2022-10-16T11:53:01;115.47;;;109.37;;
2476;SDS011;1249;51.270;6.756;2022-10-16T11:55:37;146.30;;;138.10;;
2476;SDS011;1249;51.270;6.756;2022-10-16T11:58:06;131.10;;;124.23;;
2476;SDS011;1249;51.270;6.756;2022-10-16T12:00:40;128.23;;;121.37;;
2476;SDS011;1249;51.270;6.756;2022-10-16T12:03:14;123.43;;;116.97;;
2476;SDS011;1249;51.270;6.756;2022-10-16T12:05:52;136.40;;;128.77;;
2476;SDS011;1249;51.270;6.756;2022-10-16T12:08:31;110.47;;;104.37;;
2476;SDS011;1249;51.270;6.756;2022-10-16T12:11:07;109.20;;;102.97;;
2476;SDS011;1249;51.270;6.756;2022-10-16T12:13:36;127.10;;;120.27;;
2476;SDS011;1249;51.270;6.756;2022-10-16T12:16:06;122.60;;;116.23;;
2476;SDS011;1249;51.270;6.756;2022-10-16T12:18:45;126.60;;;119.73;;
2476;SDS011;1249;51.270;6.756;2022-10-16T12:21:13;112.70;;;105.97;;
2476;SDS011;1249;51.270;6.756;2022-10-16T12:23:46;111.97;;;106.07;;
2476;SDS011;1249;51.270;6.756;2022-10-16T12:26:16;114.50;;;108.87;;
2476;SDS011;1249;51.270;6.756;2022-10-16T12:28:50;116.17;;;109.27;;
2476;SDS011;1249;51.270;6.756;2022-10-16T12:31:17;129.27;;;122.33;;
2476;SDS011;1249;51.270;6.756;2022-10-16T12:33:51;134.60;;;127.63;;
2476;SDS011;1249;51.270;6.756;2022-10-16T12:36:27;113.90;;;107.73;;
2476;SDS011;1249;51.270;6.756;2022-10-16T12:38:55;122.30;;;115.23;;
2476;SDS011;1249;51.270;6.756;2022-10-16T12:41:27;125.27;;;118.20;;
2476;SDS011;1249;51.270;6.756;2022-10-16T12:43:55;96.43;;;90.73;;
2476;SDS011;1249;51.270;6.756;2022-10-16T12:46:26;109.47;;;104.07;;
2476;SDS011;1249;51.270;6.756;2022-10-16T12:49:05;111.87;;;105.67;;
2476;SDS011;1249;51.270;6.756;2022-10-16T12:51:47;102.77;;;97.50;;
2476;SDS011;1249;51.270;6.756;2022-10-16T12:54:14;96.83;;;90.23;;
2476;SDS011;1249;51.270;6.756;2022-10-16T12:56:47;99.67;;;94.03;;
2476;SDS011;1249;51.270;6.756;2022-10-16T12:59:25;136.00;;;128.47;;
2476;SDS011;1249;51.270;6.756;2022-10-16T13:02:07;121.10;;;114.77;;
2476;SDS011;1249;51.270;6.756;2022-10-16T13:04:48;119.33;;;112.90;;
2476;SDS011;1249;51.270;6.756;2022-10-16T13:07:33;109.10;;;102.77;;
2476;SDS011;1249;51.270;6.756;2022-10-16T13:10:15;104.97;;;99.20;;
2476;SDS011;1249;51.270;6.756;2022-10-16T13:13:00;122.10;;;115.27;;
2476;SDS011;1249;51.270;6.756;2022-10-16T13:15:47;106.20;;;99.90;;
2476;SDS011;1249;51.270;6.756;2022-10-16T13:18:24;131.97;;;125.10;;
2476;SDS011;1249;51.270;6.756;2022-10-16T13:21:04;102.87;;;97.23;;
2476;SDS011;1249;51.270;6.756;2022-10-16T13:23:43;98.73;;;93.60;;
2476;SDS011;1249;51.270;6.756;2022-10-16T13:26:20;102.33;;;97.10;;
2476;SDS011;1249;51.270;6.756;2022-10-16T13:28:59;128.67;;;120.77;;
2476;SDS011;1249;51.270;6.756;2022-10-16T13:31:26;111.83;;;105.73;;
2476;SDS011;1249;51.270;6.756;2022-10-16T13:33:56;103.17;;;97.17;;
2476;SDS011;1249;51.270;6.756;2022-10-16T13:36:26;133.37;;;126.30;;
2476;SDS011;1249;51.270;6.756;2022-10-16T13:39:01;125.87;;;119.37;;
2476;SDS011;1249;51.270;6.756;2022-10-16T13:41:37;119.43;;;112.37;;
2476;SDS011;1249;51.270;6.756;2022-10-16T13:44:05;121.20;;;114.93;;
2476;SDS011;1249;51.270;6.756;2022-10-16T13:46:39;111.90;;;105.27;;
2476;SDS011;1249;51.270;6.756;2022-10-16T13:49:11;140.33;;;132.63;;
2476;SDS011;1249;51.270;6.756;2022-10-16T13:51:39;111.20;;;105.43;;
2476;SDS011;1249;51.270;6.756;2022-10-16T13:54:07;108.93;;;102.53;;
2476;SDS011;1249;51.270;6.756;2022-10-16T13:56:35;118.97;;;112.83;;
2476;SDS011;1249;51.270;6.756;2022-10-16T13:59:07;110.23;;;104.73;;
2476;SDS011;1249;51.270;6.756;2022-10-16T14:01:49;114.57;;;108.33;;
2476;SDS011;1249;51.270;6.756;2022-10-16T14:04:20;109.30;;;103.17;;
2476;SDS011;1249;51.270;6.756;2022-10-16T14:06:49;146.30;;;137.47;;
2476;SDS011;1249;51.270;6.756;2022-10-16T14:09:19;132.70;;;124.77;;
2476;SDS011;1249;51.270;6.756;2022-10-16T14:11:50;96.17;;;90.67;;
2476;SDS011;1249;51.270;6.756;2022-10-16T14:14:20;117.07;;;110.37;;
2476;SDS011;1249;51.270;6.756;2022-10-16T14:16:48;127.60;;;120.40;;
2476;SDS011;1249;51.270;6.756;2022-10-16T14:19:18;89.93;;;85.13;;
2476;SDS011;1249;51.270;6.756;2022-10-16T14:21:48;107.33;;;101.77;;
2476;SDS011;1249;51.270;6.756;2022-10-16T14:24:22;107.10;;;101.77;;
2476;SDS011;1249;51.270;6.756;2022-10-16T14:26:52;124.83;;;117.93;;
2476;SDS011;1249;51.270;6.756;2022-10-16T14:29:21;98.33;;;92.33;;
2476;SDS011;1249;51.270;6.756;2022-10-16T14:31:55;137.37;;;130.43;;
2476;SDS011;1249;51.270;6.756;2022-10-16T14:34:24;125.27;;;119.43;;
2476;SDS011;1249;51.270;6.756;2022-10-16T14:36:52;118.40;;;112.73;;
2476;SDS011;1249;51.270;6.756;2022-10-16T14:39:20;121.53;;;115.13;;
2476;SDS011;1249;51.270;6.756;2022-10-16T14:41:49;129.17;;;122.07;;
2476;SDS011;1249;51.270;6.756;2022-10-16T14:44:17;114.27;;;107.90;;
2476;SDS011;1249;51.270;6.756;2022-10-16T14:46:47;116.13;;;110.43;;
2476;SDS011;1249;51.270;6.756;2022-10-16T14:49:15;115.00;;;109.20;;
2476;SDS011;1249;51.270;6.756;2022-10-16T14:51:44;97.83;;;93.20;;
2476;SDS011;1249;51.270;6.756;2022-10-16T14:54:12;109.40;;;103.80;;
2476;SDS011;1249;51.270;6.756;2022-10-16T14:56:42;98.57;;;93.27;;
2476;SDS011;1249;51.270;6.756;2022-10-16T14:59:13;77.43;;;73.27;;
2476;SDS011;1249;51.270;6.756;2022-10-16T15:01:43;95.43;;;89.37;;
2476;SDS011;1249;51.270;6.756;2022-10-16T15:04:12;72.67;;;68.53;;